Time;durP1;ratioP1;P1;durP2;ratioP2;P2;SDS_P1;SDS_P2;PMS_P1;PMS_P2;Temp;Humidity;BMP_temperature;BMP_pressure;BME280_temperature;BME280_humidity;BME280_pressure;Samples;Min_cycle;Max_cycle;Signal;HPM_P1;HPM_P2
2021/10/11 00:00:42;;;;;;;16.20;6.32;;;10.50;99.90;;;;;;5029991;28;20519;-50
2021/10/11 00:03:08;;;;;;;12.20;6.70;;;10.40;99.90;;;;;;5028890;28;20033;-50
2021/10/11 00:05:34;;;;;;;11.45;6.65;;;10.40;99.90;;;;;;5029268;28;20048;-49
2021/10/11 00:08:00;;;;;;;13.43;6.72;;;10.40;99.90;;;;;;5030070;28;20109;-50
2021/10/11 00:10:26;;;;;;;8.63;7.00;;;10.30;99.90;;;;;;5029841;28;20041;-50
2021/10/11 00:12:54;;;;;;;9.65;7.13;;;10.40;99.90;;;;;;4964546;28;20404;-49
2021/10/11 00:15:21;;;;;;;11.82;6.30;;;10.30;99.90;;;;;;5027291;28;20026;-50
2021/10/11 00:17:47;;;;;;;10.93;6.18;;;10.30;99.90;;;;;;4996713;28;20046;-50
2021/10/11 00:20:14;;;;;;;11.38;5.88;;;10.20;99.90;;;;;;5030115;28;20025;-50
2021/10/11 00:22:40;;;;;;;11.27;6.32;;;10.20;99.90;;;;;;5029747;28;20121;-49
2021/10/11 00:25:07;;;;;;;12.95;6.20;;;10.20;99.90;;;;;;5028829;28;20044;-49
2021/10/11 00:27:35;;;;;;;10.63;6.78;;;10.30;99.90;;;;;;4956603;28;20126;-48
2021/10/11 00:30:07;;;;;;;9.23;6.63;;;10.30;99.90;;;;;;5029163;28;20037;-48
2021/10/11 00:32:33;;;;;;;12.52;7.05;;;10.30;99.90;;;;;;4997281;28;20104;-50
2021/10/11 00:34:59;;;;;;;11.13;6.78;;;10.20;99.90;;;;;;5036084;28;20025;-49
2021/10/11 00:37:25;;;;;;;10.15;7.25;;;10.20;99.90;;;;;;5051552;28;20036;-50
2021/10/11 00:39:50;;;;;;;17.80;7.82;;;10.20;99.90;;;;;;5017337;28;20037;-48
2021/10/11 00:42:16;;;;;;;12.98;6.68;;;10.10;99.90;;;;;;5036194;28;20120;-49
2021/10/11 00:44:42;;;;;;;9.98;6.03;;;10.10;99.90;;;;;;5050274;28;20033;-49
2021/10/11 00:47:08;;;;;;;8.15;6.22;;;10.00;99.90;;;;;;5045266;28;20047;-50
2021/10/11 00:49:34;;;;;;;11.48;6.72;;;10.00;99.90;;;;;;4996432;28;20378;-50
2021/10/11 00:52:00;;;;;;;13.50;7.70;;;10.00;99.90;;;;;;5044657;28;20131;-49
2021/10/11 00:54:26;;;;;;;11.88;6.97;;;10.10;99.90;;;;;;4999607;28;20049;-49
2021/10/11 00:56:52;;;;;;;13.85;7.00;;;10.10;99.90;;;;;;5045785;28;20013;-49
2021/10/11 00:59:18;;;;;;;13.30;7.32;;;10.10;99.90;;;;;;5026371;28;20103;-50
2021/10/11 01:01:44;;;;;;;10.07;7.10;;;10.10;99.90;;;;;;5041437;28;20465;-49
2021/10/11 01:04:10;;;;;;;11.68;7.40;;;10.20;99.90;;;;;;5004457;28;20079;-49
2021/10/11 01:06:38;;;;;;;12.23;7.60;;;10.10;99.90;;;;;;5015679;28;20041;-49
2021/10/11 01:09:08;;;;;;;10.98;7.05;;;10.10;99.90;;;;;;5043539;28;20041;-50
2021/10/11 01:11:35;;;;;;;10.27;7.38;;;10.20;99.90;;;;;;5053662;28;20036;-49
2021/10/11 01:14:02;;;;;;;13.27;8.40;;;10.10;99.90;;;;;;5048284;28;20483;-49
2021/10/11 01:16:28;;;;;;;15.25;7.93;;;10.20;99.90;;;;;;5050842;28;20041;-49
2021/10/11 01:18:55;;;;;;;12.85;7.97;;;10.20;99.90;;;;;;5042384;28;20036;-49
2021/10/11 01:21:21;;;;;;;13.60;8.32;;;10.20;99.90;;;;;;5051358;28;20087;-49
2021/10/11 01:23:47;;;;;;;10.95;7.47;;;10.20;99.90;;;;;;5013592;28;20048;-49
2021/10/11 01:26:13;;;;;;;10.90;8.00;;;10.20;99.90;;;;;;5032348;28;20140;-48
2021/10/11 01:28:39;;;;;;;12.63;8.25;;;10.30;99.90;;;;;;5046168;28;20116;-50
2021/10/11 01:31:05;;;;;;;12.52;8.23;;;10.20;99.90;;;;;;5050520;28;20108;-50
2021/10/11 01:33:31;;;;;;;11.43;8.32;;;10.20;99.90;;;;;;5030252;28;20037;-49
2021/10/11 01:35:58;;;;;;;13.93;8.80;;;10.10;99.90;;;;;;5003273;28;20033;-49
2021/10/11 01:38:24;;;;;;;14.05;9.57;;;10.10;99.90;;;;;;5047788;28;20083;-49
2021/10/11 01:40:50;;;;;;;15.07;9.77;;;10.00;99.90;;;;;;5044128;28;20104;-49
2021/10/11 01:43:16;;;;;;;15.50;9.68;;;10.10;99.90;;;;;;5050281;28;20031;-49
2021/10/11 01:45:46;;;;;;;15.00;9.45;;;10.10;99.90;;;;;;5031130;28;20047;-49
2021/10/11 01:48:12;;;;;;;13.82;9.25;;;10.10;99.90;;;;;;5047230;28;20037;-49
2021/10/11 01:50:38;;;;;;;16.25;9.52;;;10.00;99.90;;;;;;5046536;28;20071;-49
2021/10/11 01:53:04;;;;;;;14.43;8.88;;;10.00;99.90;;;;;;5049366;28;20116;-49
2021/10/11 01:55:29;;;;;;;14.10;8.77;;;10.00;99.90;;;;;;5048969;28;20044;-50
2021/10/11 01:57:55;;;;;;;13.45;9.40;;;10.00;99.90;;;;;;5041221;28;20086;-50
2021/10/11 02:00:21;;;;;;;17.63;11.30;;;9.90;99.90;;;;;;5013010;28;20046;-49
2021/10/11 02:02:47;;;;;;;17.48;10.60;;;9.90;99.90;;;;;;5047779;28;20381;-50
2021/10/11 02:05:13;;;;;;;18.60;11.40;;;9.90;99.90;;;;;;5025753;28;20111;-51
2021/10/11 02:07:38;;;;;;;20.08;11.68;;;9.90;99.90;;;;;;5041467;28;20116;-49
2021/10/11 02:10:06;;;;;;;18.00;11.07;;;9.80;99.90;;;;;;5046351;28;20026;-49
2021/10/11 02:12:32;;;;;;;18.42;10.50;;;9.80;99.90;;;;;;5000495;28;20044;-50
2021/10/11 02:14:58;;;;;;;13.50;9.90;;;9.70;99.90;;;;;;5026213;28;20045;-48
2021/10/11 02:17:24;;;;;;;12.25;8.77;;;9.70;99.90;;;;;;5041573;28;20033;-49
2021/10/11 02:19:50;;;;;;;15.07;10.80;;;9.70;99.90;;;;;;5010384;28;20036;-50
2021/10/11 02:22:16;;;;;;;15.95;9.73;;;9.70;99.90;;;;;;5052009;28;20087;-49
2021/10/11 02:24:42;;;;;;;15.63;9.38;;;9.70;99.90;;;;;;5045603;28;20102;-49
2021/10/11 02:27:08;;;;;;;18.92;10.40;;;9.70;99.90;;;;;;5049068;28;20032;-50
2021/10/11 02:29:34;;;;;;;17.13;11.50;;;9.70;99.90;;;;;;5046674;28;20036;-49
2021/10/11 02:32:00;;;;;;;15.15;9.65;;;9.70;99.90;;;;;;5052862;28;20025;-51
2021/10/11 02:34:25;;;;;;;20.33;11.02;;;9.60;99.90;;;;;;5034905;28;20111;-49
2021/10/11 02:36:51;;;;;;;19.55;11.60;;;9.60;99.90;;;;;;5049238;28;20029;-50
2021/10/11 02:39:17;;;;;;;15.63;10.38;;;9.70;99.90;;;;;;5042262;28;20025;-49
2021/10/11 02:41:43;;;;;;;19.27;11.85;;;9.60;99.90;;;;;;5016883;28;20045;-49
2021/10/11 02:44:09;;;;;;;16.35;10.80;;;9.60;99.90;;;;;;5049394;28;20428;-49
2021/10/11 02:46:34;;;;;;;16.55;10.93;;;9.60;99.90;;;;;;5039862;28;20488;-49
2021/10/11 02:49:01;;;;;;;17.90;10.57;;;9.60;99.90;;;;;;5006675;28;20032;-49
2021/10/11 02:51:27;;;;;;;19.35;9.80;;;9.60;99.90;;;;;;5013045;28;20038;-49
2021/10/11 02:53:53;;;;;;;20.08;10.48;;;9.60;99.90;;;;;;5047120;28;20546;-49
2021/10/11 02:56:19;;;;;;;17.55;10.18;;;9.60;99.90;;;;;;5045530;28;20044;-49
2021/10/11 02:58:48;;;;;;;16.02;10.48;;;9.50;99.90;;;;;;5021708;28;20060;-49
2021/10/11 03:01:16;;;;;;;19.58;12.23;;;9.50;99.90;;;;;;5050266;28;20033;-50
2021/10/11 03:03:42;;;;;;;20.05;11.73;;;9.60;99.90;;;;;;5042060;28;20405;-50
2021/10/11 03:06:08;;;;;;;21.63;10.63;;;9.60;99.90;;;;;;5047006;28;20035;-50
2021/10/11 03:08:35;;;;;;;15.18;10.55;;;9.50;99.90;;;;;;5042351;28;20559;-50
2021/10/11 03:11:01;;;;;;;17.75;9.60;;;9.60;99.90;;;;;;5041775;28;20021;-49
2021/10/11 03:13:27;;;;;;;17.98;9.75;;;9.60;99.90;;;;;;5041371;28;20067;-51
2021/10/11 03:15:54;;;;;;;16.38;11.02;;;9.50;99.90;;;;;;5043227;28;20029;-51
2021/10/11 03:18:20;;;;;;;16.77;9.13;;;9.50;99.90;;;;;;5048069;28;20123;-49
2021/10/11 03:20:45;;;;;;;10.40;8.57;;;9.50;99.90;;;;;;5042517;28;20111;-49
2021/10/11 03:23:11;;;;;;;20.27;11.65;;;9.40;99.90;;;;;;5029165;28;20037;-50
2021/10/11 03:25:38;;;;;;;12.75;9.55;;;9.40;99.90;;;;;;5050010;28;20041;-49
2021/10/11 03:28:04;;;;;;;16.50;10.48;;;9.40;99.90;;;;;;5046451;28;20032;-49
2021/10/11 03:30:30;;;;;;;15.50;9.50;;;9.40;99.90;;;;;;5047819;28;20040;-49
2021/10/11 03:32:56;;;;;;;13.23;8.90;;;9.40;99.90;;;;;;5028655;28;20030;-49
2021/10/11 03:35:21;;;;;;;22.13;12.43;;;9.40;99.90;;;;;;5024560;28;20496;-49
2021/10/11 03:37:47;;;;;;;23.50;11.13;;;9.40;99.90;;;;;;5044547;28;20029;-50
2021/10/11 03:40:13;;;;;;;18.73;10.65;;;9.40;99.90;;;;;;5045441;28;20028;-49
2021/10/11 03:42:39;;;;;;;19.63;9.90;;;9.40;99.90;;;;;;5028596;28;20488;-49
2021/10/11 03:45:06;;;;;;;15.52;9.60;;;9.40;99.90;;;;;;5043421;28;20040;-49
2021/10/11 03:47:32;;;;;;;18.20;10.52;;;9.30;99.90;;;;;;5015125;28;20041;-49
2021/10/11 03:49:57;;;;;;;14.13;7.72;;;9.40;99.90;;;;;;5047089;28;20380;-50
2021/10/11 03:52:23;;;;;;;16.00;10.25;;;9.30;99.90;;;;;;5013176;28;20041;-49
2021/10/11 03:54:49;;;;;;;15.85;10.00;;;9.40;99.90;;;;;;5029001;28;20505;-50
2021/10/11 03:57:15;;;;;;;16.17;10.77;;;9.30;99.90;;;;;;5045146;28;20493;-49
2021/10/11 03:59:41;;;;;;;15.45;11.15;;;9.30;99.90;;;;;;4994165;28;20052;-49
2021/10/11 04:02:07;;;;;;;18.25;10.48;;;9.20;99.90;;;;;;5036773;28;20503;-49
2021/10/11 04:04:34;;;;;;;12.90;8.32;;;9.30;99.90;;;;;;5048798;28;20037;-50
2021/10/11 04:07:07;;;;;;;10.68;7.10;;;9.20;99.90;;;;;;5023761;28;20143;-51
2021/10/11 04:09:33;;;;;;;12.93;8.90;;;9.10;99.90;;;;;;5043795;28;20377;-50
2021/10/11 04:12:06;;;;;;;17.33;10.07;;;9.20;99.90;;;;;;5041287;28;20029;-50
2021/10/11 04:14:33;;;;;;;18.08;10.10;;;9.10;99.90;;;;;;5030786;28;20491;-49
2021/10/11 04:16:59;;;;;;;18.98;9.98;;;9.30;99.90;;;;;;5050826;28;20021;-51
2021/10/11 04:19:25;;;;;;;12.05;7.82;;;9.30;99.90;;;;;;5046176;28;20031;-50
2021/10/11 04:21:51;;;;;;;16.48;8.90;;;9.20;99.90;;;;;;5029162;28;20033;-50
2021/10/11 04:24:16;;;;;;;14.95;9.95;;;9.20;99.90;;;;;;5047063;28;20026;-50
2021/10/11 04:26:42;;;;;;;13.40;8.35;;;9.20;99.90;;;;;;5045508;28;20092;-50
2021/10/11 04:29:08;;;;;;;18.98;8.65;;;9.10;99.90;;;;;;5015754;28;20029;-49
2021/10/11 04:31:34;;;;;;;16.88;9.43;;;9.10;99.90;;;;;;5010504;28;20041;-50
2021/10/11 04:34:00;;;;;;;16.70;9.48;;;9.10;99.90;;;;;;5046514;28;20041;-51
2021/10/11 04:36:26;;;;;;;17.38;9.43;;;9.10;99.90;;;;;;5041831;28;20037;-50
2021/10/11 04:38:52;;;;;;;16.65;9.27;;;9.10;99.90;;;;;;4998492;28;20082;-51
2021/10/11 04:41:18;;;;;;;14.13;9.57;;;9.10;99.90;;;;;;5044660;28;20036;-49
2021/10/11 04:43:44;;;;;;;15.20;9.40;;;9.10;99.90;;;;;;5045533;28;20457;-49
2021/10/11 04:46:10;;;;;;;14.93;9.57;;;9.10;99.90;;;;;;5018163;28;20090;-49
2021/10/11 04:48:36;;;;;;;13.88;6.85;;;9.00;99.90;;;;;;5039217;28;20029;-50
2021/10/11 04:51:01;;;;;;;15.15;9.60;;;9.00;99.90;;;;;;5004357;28;20060;-49
2021/10/11 04:53:27;;;;;;;17.27;9.80;;;9.10;99.90;;;;;;4994260;28;20042;-50
2021/10/11 04:55:53;;;;;;;12.43;8.98;;;9.10;99.90;;;;;;5048366;28;20037;-50
2021/10/11 04:58:19;;;;;;;19.92;10.25;;;9.00;99.90;;;;;;5045312;28;20021;-49
2021/10/11 05:00:44;;;;;;;21.85;10.77;;;9.00;99.90;;;;;;5036326;28;20357;-50
2021/10/11 05:03:10;;;;;;;16.05;10.48;;;9.00;99.90;;;;;;5047428;28;20038;-50
2021/10/11 05:05:36;;;;;;;15.77;9.52;;;9.00;99.90;;;;;;5048552;28;20039;-49
2021/10/11 05:08:03;;;;;;;23.30;11.38;;;9.00;99.90;;;;;;5008305;28;20460;-50
2021/10/11 05:10:29;;;;;;;17.20;10.02;;;9.10;99.90;;;;;;5043612;28;20017;-50
2021/10/11 05:12:55;;;;;;;15.88;10.73;;;9.00;99.90;;;;;;4998273;28;20072;-49
2021/10/11 05:15:21;;;;;;;22.38;11.65;;;9.00;99.90;;;;;;5045548;28;20029;-50
2021/10/11 05:17:46;;;;;;;19.52;12.55;;;9.10;99.90;;;;;;5042658;28;20033;-53
2021/10/11 05:20:12;;;;;;;17.73;11.40;;;9.20;99.90;;;;;;4998399;28;20554;-50
2021/10/11 05:22:39;;;;;;;16.58;10.18;;;9.10;99.90;;;;;;5043339;28;20030;-50
2021/10/11 05:25:05;;;;;;;16.92;10.68;;;9.00;99.90;;;;;;5050841;28;20396;-50
2021/10/11 05:27:34;;;;;;;16.20;11.00;;;9.00;99.90;;;;;;5019060;28;20041;-50
2021/10/11 05:30:00;;;;;;;19.48;10.90;;;9.00;99.90;;;;;;5036502;28;20056;-49
2021/10/11 05:32:27;;;;;;;20.00;11.50;;;9.10;99.90;;;;;;5053037;28;20464;-50
2021/10/11 05:34:54;;;;;;;17.42;12.18;;;9.10;99.90;;;;;;5045380;28;20037;-49
2021/10/11 05:37:20;;;;;;;13.18;9.02;;;9.10;99.90;;;;;;5049114;28;20104;-49
2021/10/11 05:39:46;;;;;;;25.92;13.70;;;9.10;99.90;;;;;;5051537;28;20063;-50
2021/10/11 05:42:12;;;;;;;16.95;9.52;;;9.20;99.90;;;;;;5052706;28;20014;-50
2021/10/11 05:44:38;;;;;;;16.95;10.05;;;9.00;99.90;;;;;;5048035;28;20068;-49
2021/10/11 05:47:04;;;;;;;26.65;12.20;;;9.00;99.90;;;;;;5027158;28;20049;-49
2021/10/11 05:49:30;;;;;;;19.48;11.55;;;8.90;99.90;;;;;;5030272;28;20056;-50
2021/10/11 05:51:55;;;;;;;17.17;11.20;;;9.00;99.90;;;;;;5026451;28;20033;-51
2021/10/11 05:54:21;;;;;;;16.33;11.32;;;9.00;99.90;;;;;;5028205;28;20057;-50
2021/10/11 05:56:47;;;;;;;18.20;10.10;;;9.10;99.90;;;;;;5028042;28;20040;-50
2021/10/11 05:59:13;;;;;;;17.27;10.25;;;9.10;99.90;;;;;;4979839;28;20033;-49
2021/10/11 06:01:39;;;;;;;17.88;11.23;;;9.00;99.90;;;;;;4998504;28;20038;-50
2021/10/11 06:04:05;;;;;;;18.90;13.35;;;9.10;99.90;;;;;;5024720;28;20033;-50
2021/10/11 06:06:30;;;;;;;17.15;10.15;;;9.20;99.90;;;;;;5029739;28;20045;-49
2021/10/11 06:08:56;;;;;;;19.50;11.77;;;9.00;99.90;;;;;;5005719;28;20041;-49
2021/10/11 06:11:22;;;;;;;20.23;12.88;;;9.10;99.90;;;;;;5005062;28;20053;-50
2021/10/11 06:13:48;;;;;;;17.95;11.82;;;9.10;99.90;;;;;;4977351;28;20069;-49
2021/10/11 06:16:14;;;;;;;25.58;13.20;;;9.20;99.90;;;;;;5007462;28;20053;-48
2021/10/11 06:18:40;;;;;;;22.58;15.10;;;9.20;99.90;;;;;;5021821;28;20084;-48
2021/10/11 06:21:06;;;;;;;21.65;13.35;;;9.20;99.90;;;;;;5026310;28;20135;-49
2021/10/11 06:23:32;;;;;;;25.45;13.43;;;9.20;99.90;;;;;;4979290;28;20095;-49
2021/10/11 06:25:58;;;;;;;21.00;12.48;;;9.20;99.90;;;;;;5012683;28;20142;-48
2021/10/11 06:28:24;;;;;;;21.15;13.85;;;9.30;99.90;;;;;;5029690;28;20037;-49
2021/10/11 06:30:49;;;;;;;21.40;11.98;;;9.30;99.90;;;;;;4996501;28;20034;-49
2021/10/11 06:33:16;;;;;;;25.42;15.60;;;9.20;99.90;;;;;;5025172;28;20397;-50
2021/10/11 06:35:42;;;;;;;22.17;12.73;;;9.20;99.90;;;;;;5026168;28;20184;-48
2021/10/11 06:38:08;;;;;;;18.83;12.30;;;9.10;99.90;;;;;;5025205;28;20030;-50
2021/10/11 06:40:34;;;;;;;21.17;13.80;;;9.10;99.90;;;;;;5045064;28;20042;-50
2021/10/11 06:43:00;;;;;;;18.77;12.75;;;9.30;99.90;;;;;;5027627;28;20037;-48
2021/10/11 06:45:26;;;;;;;21.65;11.60;;;9.20;99.90;;;;;;5046344;28;20099;-49
2021/10/11 06:47:51;;;;;;;22.33;11.90;;;9.20;99.90;;;;;;4993984;28;20033;-48
2021/10/11 06:50:17;;;;;;;19.00;11.23;;;9.20;99.90;;;;;;5048726;28;20051;-48
2021/10/11 06:52:43;;;;;;;23.17;15.45;;;9.20;99.90;;;;;;5005521;28;20045;-49
2021/10/11 06:55:09;;;;;;;20.50;14.35;;;9.30;99.90;;;;;;5044884;28;20032;-50
2021/10/11 06:57:35;;;;;;;17.08;11.27;;;9.30;99.90;;;;;;5034701;28;20033;-48
2021/10/11 07:00:00;;;;;;;18.73;11.55;;;9.30;99.90;;;;;;5032352;28;20040;-49
2021/10/11 07:02:26;;;;;;;20.67;13.00;;;9.40;99.90;;;;;;5040737;28;20044;-49
2021/10/11 07:04:57;;;;;;;23.58;11.55;;;9.30;99.90;;;;;;5049610;28;20028;-50
2021/10/11 07:07:27;;;;;;;16.97;12.00;;;9.30;99.90;;;;;;5040228;28;20032;-48
2021/10/11 07:09:53;;;;;;;22.00;15.13;;;9.40;99.90;;;;;;5045401;28;20115;-48
2021/10/11 07:12:19;;;;;;;20.48;11.65;;;9.40;99.90;;;;;;5046873;28;20116;-49
2021/10/11 07:14:44;;;;;;;17.77;11.10;;;9.40;99.90;;;;;;5049828;28;20021;-48
2021/10/11 07:17:10;;;;;;;16.60;10.95;;;9.40;99.90;;;;;;5042555;28;20025;-49
2021/10/11 07:19:36;;;;;;;14.80;11.43;;;9.50;99.90;;;;;;5046307;28;20036;-48
2021/10/11 07:22:02;;;;;;;16.48;10.18;;;9.50;99.90;;;;;;5046992;28;20028;-50
2021/10/11 07:24:28;;;;;;;18.08;11.68;;;9.50;99.90;;;;;;5027806;28;20095;-47
2021/10/11 07:26:54;;;;;;;16.30;11.68;;;9.50;99.90;;;;;;5037773;28;20507;-49
2021/10/11 07:29:19;;;;;;;19.25;11.02;;;9.60;99.90;;;;;;5042932;28;20597;-49
2021/10/11 07:31:45;;;;;;;20.88;11.90;;;9.60;99.90;;;;;;5017333;28;20065;-49
2021/10/11 07:34:11;;;;;;;21.85;10.75;;;9.60;99.90;;;;;;5041629;28;20567;-48
2021/10/11 07:36:37;;;;;;;22.10;12.93;;;9.60;99.90;;;;;;5012456;28;20065;-48
2021/10/11 07:39:03;;;;;;;19.88;11.52;;;9.60;99.90;;;;;;5028487;28;20072;-50
2021/10/11 07:41:29;;;;;;;19.67;11.88;;;9.60;99.90;;;;;;5032100;28;20440;-48
2021/10/11 07:43:55;;;;;;;15.80;8.35;;;9.70;99.90;;;;;;5046998;28;20464;-48
2021/10/11 07:46:21;;;;;;;16.75;10.90;;;9.60;99.90;;;;;;5043339;28;20049;-50
2021/10/11 07:48:47;;;;;;;18.60;11.52;;;9.60;99.90;;;;;;5033492;28;20033;-48
2021/10/11 07:51:12;;;;;;;20.60;12.27;;;9.60;99.90;;;;;;5017385;28;20037;-48
2021/10/11 07:53:38;;;;;;;21.92;13.43;;;9.60;99.90;;;;;;5014936;28;20140;-49
2021/10/11 07:56:04;;;;;;;15.55;10.48;;;9.70;99.90;;;;;;5048455;28;20025;-49
2021/10/11 07:58:30;;;;;;;20.52;12.95;;;9.70;99.90;;;;;;5043198;28;20476;-49
2021/10/11 08:00:56;;;;;;;16.73;11.57;;;9.70;99.90;;;;;;5023626;28;20097;-48
2021/10/11 08:03:25;;;;;;;21.38;13.77;;;9.70;99.90;;;;;;5026737;28;20037;-44
2021/10/11 08:05:51;;;;;;;21.90;13.13;;;9.80;99.90;;;;;;5033507;28;20114;-45
2021/10/11 08:08:17;;;;;;;29.55;13.15;;;9.80;99.90;;;;;;5048303;28;20033;-47
2021/10/11 08:10:44;;;;;;;18.75;12.80;;;9.70;99.90;;;;;;5049567;28;20056;-46
2021/10/11 08:13:10;;;;;;;19.20;13.30;;;9.90;99.90;;;;;;5032403;28;20090;-47
2021/10/11 08:15:36;;;;;;;17.95;12.25;;;9.90;99.90;;;;;;5044596;28;20086;-47
2021/10/11 08:18:01;;;;;;;20.77;12.75;;;10.00;99.90;;;;;;5032257;28;20037;-45
2021/10/11 08:20:28;;;;;;;23.83;15.73;;;10.10;99.90;;;;;;5050071;28;20029;-45
2021/10/11 08:22:54;;;;;;;20.20;14.02;;;10.20;99.90;;;;;;5047069;28;20037;-44
2021/10/11 08:25:20;;;;;;;18.17;12.63;;;10.20;99.90;;;;;;5023954;28;20065;-46
2021/10/11 08:27:45;;;;;;;19.50;11.43;;;10.20;99.90;;;;;;5014658;28;20429;-50
2021/10/11 08:30:11;;;;;;;19.42;11.77;;;10.30;99.90;;;;;;5043171;28;20454;-46
2021/10/11 08:32:37;;;;;;;18.52;12.55;;;10.40;99.90;;;;;;5030074;28;20454;-43
2021/10/11 08:35:03;;;;;;;17.95;13.07;;;10.40;99.90;;;;;;5045962;28;20111;-45
2021/10/11 08:37:29;;;;;;;18.80;12.45;;;10.40;99.90;;;;;;5027797;28;20041;-47
2021/10/11 08:39:55;;;;;;;26.55;13.88;;;10.30;99.90;;;;;;5042606;28;20108;-46
2021/10/11 08:42:22;;;;;;;21.52;14.25;;;10.40;99.90;;;;;;5045117;28;20047;-45
2021/10/11 08:44:49;;;;;;;41.35;15.73;;;10.40;99.90;;;;;;5042828;28;20021;-47
2021/10/11 08:47:15;;;;;;;21.83;14.40;;;10.60;99.90;;;;;;4998688;28;20106;-45
2021/10/11 08:49:51;;;;;;;16.38;10.98;;;10.60;99.90;;;;;;5048603;28;20025;-47
2021/10/11 08:52:22;;;;;;;27.98;14.57;;;10.50;99.90;;;;;;4995245;28;20041;-47
2021/10/11 08:54:49;;;;;;;17.58;11.27;;;10.60;99.90;;;;;;5010645;28;20048;-45
2021/10/11 08:57:23;;;;;;;20.70;13.77;;;10.60;99.90;;;;;;5048667;28;20104;-46
2021/10/11 08:59:50;;;;;;;19.08;12.38;;;10.70;99.90;;;;;;5051822;28;20021;-44
2021/10/11 09:02:16;;;;;;;19.05;11.75;;;10.70;99.90;;;;;;5047931;28;20127;-48
2021/10/11 09:04:57;;;;;;;19.52;13.73;;;10.50;99.90;;;;;;5047329;28;20045;-47
2021/10/11 09:07:27;;;;;;;20.17;13.10;;;10.70;99.90;;;;;;5031913;28;20072;-45
2021/10/11 09:09:57;;;;;;;24.20;16.13;;;10.50;99.90;;;;;;5029888;28;20041;-45
2021/10/11 09:12:30;;;;;;;34.53;24.25;;;10.50;99.90;;;;;;4999392;28;20036;-47
2021/10/11 09:15:14;;;;;;;24.52;15.55;;;10.50;99.90;;;;;;4999990;28;20045;-46
2021/10/11 09:17:54;;;;;;;18.50;13.25;;;10.50;99.90;;;;;;5027083;28;20045;-45
2021/10/11 09:20:23;;;;;;;15.43;11.23;;;10.40;99.90;;;;;;5031260;28;20109;-44
2021/10/11 09:22:51;;;;;;;18.60;11.75;;;10.30;99.90;;;;;;5013449;28;20044;-47
2021/10/11 09:25:18;;;;;;;39.22;24.67;;;10.30;99.90;;;;;;5031714;28;20029;-47
2021/10/11 09:27:55;;;;;;;66.43;37.80;;;10.30;99.90;;;;;;5023855;28;20073;-47
2021/10/11 09:30:27;;;;;;;31.90;22.73;;;10.40;99.90;;;;;;5029785;28;20080;-46
2021/10/11 09:33:08;;;;;;;45.08;30.33;;;10.40;99.90;;;;;;5029157;28;20038;-47
2021/10/11 09:35:34;;;;;;;128.57;59.63;;;10.40;99.90;;;;;;5023036;28;20034;-46
2021/10/11 09:38:00;;;;;;;113.25;58.95;;;10.40;99.90;;;;;;5036243;28;20060;-46
2021/10/11 09:40:26;;;;;;;26.20;16.52;;;10.50;99.90;;;;;;5032220;28;20076;-47
2021/10/11 09:42:52;;;;;;;18.92;12.88;;;10.60;99.90;;;;;;5044615;28;20025;-44
2021/10/11 09:45:23;;;;;;;24.10;14.95;;;10.60;99.90;;;;;;5028946;28;20037;-46
2021/10/11 09:47:50;;;;;;;19.67;13.33;;;10.60;99.90;;;;;;5049775;28;20060;-47
2021/10/11 09:50:17;;;;;;;26.00;17.58;;;10.60;99.90;;;;;;5045651;28;20262;-46
2021/10/11 09:52:44;;;;;;;22.88;14.50;;;10.80;99.90;;;;;;5021419;28;20061;-46
2021/10/11 09:55:12;;;;;;;25.52;16.08;;;10.90;99.90;;;;;;5033158;28;20033;-45
2021/10/11 09:57:38;;;;;;;21.10;13.23;;;10.90;99.90;;;;;;5044175;28;20431;-47
2021/10/11 10:00:07;;;;;;;22.77;13.73;;;11.00;99.90;;;;;;5031199;28;20037;-47
2021/10/11 10:02:37;;;;;;;21.33;14.45;;;10.90;99.90;;;;;;5032349;28;20037;-45
2021/10/11 10:05:08;;;;;;;21.33;14.02;;;11.00;99.90;;;;;;5041548;28;20033;-45
2021/10/11 10:07:36;;;;;;;19.92;12.65;;;11.00;99.90;;;;;;5039769;28;20033;-46
2021/10/11 10:10:05;;;;;;;20.65;15.20;;;11.00;99.90;;;;;;5048711;28;20032;-48
2021/10/11 10:12:32;;;;;;;25.13;15.70;;;10.90;99.90;;;;;;4983105;28;20044;-47
2021/10/11 10:15:04;;;;;;;30.15;20.10;;;11.00;99.90;;;;;;5049247;28;20384;-46
2021/10/11 10:17:32;;;;;;;20.15;12.48;;;11.30;99.90;;;;;;5024825;28;20041;-46
2021/10/11 10:20:11;;;;;;;22.77;13.50;;;11.10;99.90;;;;;;5031105;28;20032;-44
2021/10/11 10:22:40;;;;;;;25.02;16.50;;;11.00;99.90;;;;;;5044976;28;20033;-44
2021/10/11 10:25:07;;;;;;;21.83;15.15;;;11.00;99.90;;;;;;5044586;28;20021;-47
2021/10/11 10:27:36;;;;;;;21.02;13.25;;;11.00;99.90;;;;;;5014582;28;20040;-45
2021/10/11 10:30:23;;;;;;;21.45;13.00;;;11.10;99.90;;;;;;5046552;28;20100;-44
2021/10/11 10:33:02;;;;;;;19.33;12.90;;;11.00;99.90;;;;;;5013438;28;20041;-46
2021/10/11 10:35:32;;;;;;;18.85;13.20;;;10.90;99.90;;;;;;5013573;28;20519;-43
2021/10/11 10:37:58;;;;;;;25.17;15.75;;;10.90;99.90;;;;;;5043602;28;20022;-48
2021/10/11 10:40:30;;;;;;;20.30;13.00;;;11.00;99.90;;;;;;5050930;28;20476;-46
2021/10/11 10:43:09;;;;;;;16.13;11.30;;;11.00;99.90;;;;;;5025883;28;20029;-45
2021/10/11 10:45:37;;;;;;;19.42;11.93;;;11.00;99.90;;;;;;5048257;28;20148;-44
2021/10/11 10:48:25;;;;;;;19.05;13.43;;;10.90;99.90;;;;;;5014592;28;20048;-46
2021/10/11 10:50:58;;;;;;;19.13;13.93;;;10.90;99.90;;;;;;5031295;28;20049;-46
2021/10/11 10:53:28;;;;;;;23.23;16.05;;;10.90;99.90;;;;;;5044637;28;20430;-46
2021/10/11 10:55:54;;;;;;;28.70;17.83;;;11.00;99.90;;;;;;5028835;28;20460;-45
2021/10/11 10:58:22;;;;;;;24.30;18.10;;;11.00;99.90;;;;;;5041534;28;20369;-47
2021/10/11 11:00:49;;;;;;;16.30;11.43;;;11.10;99.90;;;;;;5034253;28;20493;-45
2021/10/11 11:03:19;;;;;;;18.45;12.93;;;11.00;99.90;;;;;;5045404;28;20051;-45
2021/10/11 11:05:47;;;;;;;21.77;14.95;;;10.90;99.90;;;;;;5020874;28;20053;-45
2021/10/11 11:08:17;;;;;;;25.08;15.45;;;11.00;99.90;;;;;;5044584;28;20365;-44
2021/10/11 11:10:43;;;;;;;25.65;13.13;;;11.00;99.90;;;;;;5039073;28;20160;-47
2021/10/11 11:13:15;;;;;;;23.08;14.00;;;10.80;99.90;;;;;;5036881;28;20049;-47
2021/10/11 11:15:46;;;;;;;19.17;13.75;;;10.90;99.90;;;;;;5033159;28;20141;-48
2021/10/11 11:18:18;;;;;;;21.02;13.65;;;10.90;99.90;;;;;;5044257;28;20116;-45
2021/10/11 11:20:45;;;;;;;21.35;13.23;;;10.90;99.90;;;;;;5042307;28;20045;-45
2021/10/11 11:23:13;;;;;;;20.90;12.95;;;10.90;99.90;;;;;;5038703;28;20041;-45
2021/10/11 11:25:42;;;;;;;22.20;15.73;;;10.90;99.90;;;;;;5036522;28;20042;-47
2021/10/11 11:28:13;;;;;;;19.05;13.90;;;10.90;99.90;;;;;;5042640;28;20041;-48
2021/10/11 11:30:39;;;;;;;17.47;13.23;;;11.00;99.90;;;;;;5030137;28;20136;-46
2021/10/11 11:33:08;;;;;;;19.35;13.48;;;11.10;99.90;;;;;;5009975;28;20047;-45
2021/10/11 11:35:45;;;;;;;17.35;12.80;;;11.00;99.90;;;;;;5028962;28;20060;-47
2021/10/11 11:38:14;;;;;;;20.65;13.10;;;10.90;99.90;;;;;;5042462;28;20045;-48
2021/10/11 11:40:46;;;;;;;18.02;11.93;;;10.90;99.90;;;;;;5044686;28;20069;-47
2021/10/11 11:43:12;;;;;;;15.57;10.30;;;10.90;99.90;;;;;;4989194;28;20045;-47
2021/10/11 11:45:50;;;;;;;17.17;10.60;;;10.90;99.90;;;;;;4984752;28;20052;-47
2021/10/11 11:48:21;;;;;;;16.02;10.82;;;10.90;99.90;;;;;;4940804;28;20043;-46
2021/10/11 11:50:50;;;;;;;16.70;12.18;;;10.90;99.90;;;;;;4989778;28;20037;-45
2021/10/11 11:53:17;;;;;;;22.13;14.45;;;11.00;99.90;;;;;;4986036;28;20534;-47
2021/10/11 11:55:48;;;;;;;16.20;11.43;;;11.00;99.90;;;;;;4992009;28;20076;-45
2021/10/11 11:58:38;;;;;;;17.40;11.90;;;11.00;99.90;;;;;;4991648;28;20048;-48
2021/10/11 12:01:14;;;;;;;14.93;11.00;;;11.20;99.90;;;;;;4925401;28;20050;-46
2021/10/11 12:03:53;;;;;;;19.35;12.23;;;11.10;99.90;;;;;;4971118;28;20057;-46
2021/10/11 12:06:25;;;;;;;17.20;12.07;;;11.10;99.90;;;;;;4973292;28;20050;-45
2021/10/11 12:08:51;;;;;;;17.80;12.35;;;11.10;99.90;;;;;;4991702;28;20038;-46
2021/10/11 12:11:18;;;;;;;22.48;14.40;;;11.00;99.90;;;;;;4927423;28;20046;-47
2021/10/11 12:13:45;;;;;;;21.25;15.02;;;11.00;99.90;;;;;;5001958;28;20044;-46
2021/10/11 12:16:24;;;;;;;18.35;12.07;;;11.10;99.90;;;;;;5031111;28;20026;-51
2021/10/11 12:18:52;;;;;;;15.60;11.85;;;11.20;99.90;;;;;;4998442;28;20048;-50
2021/10/11 12:21:35;;;;;;;18.15;14.18;;;11.20;99.90;;;;;;5030935;28;20026;-49
2021/10/11 12:24:05;;;;;;;16.60;10.95;;;11.30;99.90;;;;;;5030543;28;20377;-50
2021/10/11 12:26:31;;;;;;;17.13;10.65;;;11.30;99.90;;;;;;5022623;28;20072;-49
2021/10/11 12:28:59;;;;;;;15.90;11.07;;;11.20;99.90;;;;;;5030713;28;20531;-50
2021/10/11 12:31:29;;;;;;;18.38;12.57;;;11.20;99.90;;;;;;5030970;28;20026;-49
2021/10/11 12:34:07;;;;;;;23.00;15.70;;;11.20;99.90;;;;;;5032524;28;20036;-49
2021/10/11 12:36:45;;;;;;;19.45;13.60;;;11.30;99.90;;;;;;4998252;28;20037;-50